Time;durP1;ratioP1;P1;durP2;ratioP2;P2;SDS_P1;SDS_P2;PMS_P1;PMS_P2;Temp;Humidity;BMP_temperature;BMP_pressure;BME280_temperature;BME280_humidity;BME280_pressure;Samples;Min_cycle;Max_cycle;Signal;HPM_P1;HPM_P2
2022/09/03 12:24:52;;;;;;;;;;;;;;;;;;6221466;22;19923;-81
2022/09/03 12:27:21;;;;;;;;;;;;;;;;;;6202785;23;19916;-77
2022/09/03 12:29:47;;;;;;;;;;;;;;;;;;6177700;23;20272;-79
2022/09/03 12:32:13;;;;;;;;;;;;;;;;;;6179913;23;19920;-77
2022/09/03 12:37:50;;;;;;;;;;;;;;;;;;6180302;23;19939;-77
2022/09/03 12:40:20;;;;;;;;;;;;;;;;;;6186206;23;19923;-78
2022/09/03 12:42:45;;;;;;;;;;;;;;;;;;6192615;23;19939;-77
2022/09/03 12:45:14;;;;;;;;;;;;;;;;;;6182570;23;19916;-77
2022/09/03 12:47:40;;;;;;;;;;;;;;;;;;6182478;23;19912;-83
2022/09/03 12:50:06;;;;;;;;;;;;;;;;;;6180167;23;19923;-74
2022/09/03 12:52:31;;;;;;;;;;;;;;;;;;6181498;23;19927;-74
2022/09/03 12:54:57;;;;;;;;;;;;;;;;;;6153741;23;19934;-78
2022/09/03 12:57:26;;;;;;;;;;;;;;;;;;6182655;23;19920;-81
2022/09/03 13:00:04;;;;;;;;;;;;;;;;;;6184526;23;20271;-83
2022/09/03 13:02:30;;;;;;;;;;;;;;;;;;6188350;23;19939;-82
2022/09/03 13:04:56;;;;;;;;;;;;;;;;;;6197835;23;19917;-87
2022/09/03 13:07:22;;;;;;;;;;;;;;;;;;6202361;23;20011;-84
2022/09/03 13:09:49;;;;;;;;;;;;;;;;;;6170161;23;20267;-83
2022/09/03 13:12:15;;;;;;;;;;;;;;;;;;6172015;23;20011;-85
2022/09/03 13:14:40;;;;;;;;;;;;;;;;;;6188228;23;19912;-83
2022/09/03 13:17:12;;;;;;;;;;;;;;;;;;6189975;23;19916;-88
2022/09/03 13:19:38;;;;;;;;;;;;;;;;;;6170738;23;19904;-85
2022/09/03 13:22:04;;;;;;;;;;;;;;;;;;6201864;23;19912;-84
2022/09/03 13:24:30;;;;;;;;;;;;;;;;;;6199674;23;20446;-83
2022/09/03 13:26:56;;;;;;;;;;;;;;;;;;6171178;23;19960;-85
2022/09/03 13:29:24;;;;;;;;;;;;;;;;;;6172106;23;19951;-85
2022/09/03 13:31:50;;;;;;;;;;;;;;;;;;6198328;23;19921;-83
2022/09/03 13:34:16;;;;;;;;;;;;;;;;;;6191456;23;19916;-86
2022/09/03 13:36:41;;;;;;;;;;;;;;;;;;6206151;23;19913;-86
2022/09/03 13:39:07;;;;;;;;;;;;;;;;;;6171371;23;19994;-85
2022/09/03 13:41:34;;;;;;;;;;;;;;;;;;6193459;23;19916;-83
2022/09/03 13:44:03;;;;;;;;;;;;;;;;;;6190050;23;20280;-80
2022/09/03 13:46:29;;;;;;;;;;;;;;;;;;6189029;23;19896;-83
2022/09/03 13:51:39;;;;;;;;;;;;;;;;;;6167416;23;19920;-86
2022/09/03 13:54:05;;;;;;;;;;;;;;;;;;6153629;23;20399;-82
2022/09/03 13:56:30;;;;;;;;;;;;;;;;;;6157059;23;19912;-82
2022/09/03 13:58:56;;;;;;;;;;;;;;;;;;6182709;23;19944;-80
2022/09/03 14:01:22;;;;;;;;;;;;;;;;;;6184106;23;20292;-81
2022/09/03 14:03:47;;;;;;;;;;;;;;;;;;6185966;23;19912;-82
2022/09/03 14:06:13;;;;;;;;;;;;;;;;;;6202850;23;19921;-86
2022/09/03 14:08:47;;;;;;;;;;;;;;;;;;6205234;23;19896;-83
2022/09/03 14:11:12;;;;;;;;;;;;;;;;;;6190490;23;19939;-81
2022/09/03 14:13:38;;;;;;;;;;;;;;;;;;6197193;23;19912;-84
2022/09/03 14:16:04;;;;;;;;;;;;;;;;;;6184919;23;20404;-82
2022/09/03 14:18:29;;;;;;;;;;;;;;;;;;6189575;23;19912;-83
2022/09/03 14:20:55;;;;;;;;;;;;;;;;;;6191147;23;19935;-82
2022/09/03 14:23:21;;;;;;;;;;;;;;;;;;6193231;23;19912;-80
2022/09/03 14:25:46;;;;;;;;;;;;;;;;;;6199965;23;19916;-84
2022/09/03 14:28:12;;;;;;;;;;;;;;;;;;6192615;23;19924;-87
2022/09/03 14:30:38;;;;;;;;;;;;;;;;;;6191640;23;20355;-81
2022/09/03 14:33:03;;;;;;;;;;;;;;;;;;6194636;23;19959;-81
2022/09/03 14:35:29;;;;;;;;;;;;;;;;;;6156940;23;19912;-79
2022/09/03 14:37:54;;;;;;;;;;;;;;;;;;6181432;23;19967;-77
2022/09/03 14:40:20;;;;;;;;;;;;;;;;;;6186648;23;19939;-74
2022/09/03 14:42:45;;;;;;;;;;;;;;;;;;6160506;23;20011;-76
2022/09/03 14:45:11;;;;;;;;;;;;;;;;;;6181450;23;19916;-76
2022/09/03 14:47:37;;;;;;;;;;;;;;;;;;6181181;23;20436;-79
2022/09/03 14:50:03;;;;;;;;;;;;;;;;;;6155474;23;19939;-75
2022/09/03 14:52:29;;;;;;;;;;;;;;;;;;6179624;23;20002;-75
2022/09/03 14:55:06;;;;;;;;;;;;;;;;;;6181021;23;19912;-75
2022/09/03 14:57:32;;;;;;;;;;;;;;;;;;6128743;23;19913;-75
2022/09/03 14:59:57;;;;;;;;;;;;;;;;;;6153656;23;20466;-76
2022/09/03 15:02:23;;;;;;;;;;;;;;;;;;6178704;23;20341;-75
2022/09/03 15:04:49;;;;;;;;;;;;;;;;;;6178719;23;19998;-75
2022/09/03 15:07:14;;;;;;;;;;;;;;;;;;6179760;23;19920;-75
2022/09/03 15:12:59;;;;;;;;;;;;;;;;;;6174589;23;20313;-75
2022/09/03 15:15:25;;;;;;;;;;;;;;;;;;6105780;23;19912;-75
2022/09/03 15:17:51;;;;;;;;;;;;;;;;;;6104127;23;19966;-75
2022/09/03 15:20:17;;;;;;;;;;;;;;;;;;6179560;23;19912;-75
2022/09/03 15:22:43;;;;;;;;;;;;;;;;;;6179881;23;19949;-77
2022/09/03 15:25:09;;;;;;;;;;;;;;;;;;6104377;23;19912;-75
2022/09/03 15:27:35;;;;;;;;;;;;;;;;;;6179992;23;19912;-76
2022/09/03 15:30:01;;;;;;;;;;;;;;;;;;6181782;23;19912;-75
2022/09/03 15:32:31;;;;;;;;;;;;;;;;;;6189463;23;19920;-75
2022/09/03 15:34:57;;;;;;;;;;;;;;;;;;6163404;23;19974;-75
2022/09/03 15:37:22;;;;;;;;;;;;;;;;;;6182277;23;20296;-75
2022/09/03 15:39:48;;;;;;;;;;;;;;;;;;6179703;23;20010;-76
2022/09/03 15:42:14;;;;;;;;;;;;;;;;;;6179829;23;20426;-74
2022/09/03 15:44:40;;;;;;;;;;;;;;;;;;6180752;23;19913;-73
2022/09/03 15:47:05;;;;;;;;;;;;;;;;;;6178951;23;19915;-71
2022/09/03 15:49:31;;;;;;;;;;;;;;;;;;6179260;23;19919;-71
2022/09/03 15:51:56;;;;;;;;;;;;;;;;;;6180171;23;19921;-72
2022/09/03 15:54:25;;;;;;;;;;;;;;;;;;6180338;23;19916;-73
2022/09/03 15:56:51;;;;;;;;;;;;;;;;;;6180998;23;20312;-75
2022/09/03 15:59:17;;;;;;;;;;;;;;;;;;6181678;23;19939;-74
2022/09/03 16:01:43;;;;;;;;;;;;;;;;;;6181541;23;19947;-79
2022/09/03 16:04:08;;;;;;;;;;;;;;;;;;6130843;23;20357;-78
2022/09/03 16:06:36;;;;;;;;;;;;;;;;;;6181888;23;19920;-77
2022/09/03 16:12:33;;;;;;;;;;;;;;;;;;6181810;23;19920;-76
2022/09/03 16:15:14;;;;;;;;;;;;;;;;;;6183366;23;19913;-77
2022/09/03 16:17:45;;;;;;;;;;;;;;;;;;6184061;23;20236;-77
2022/09/03 16:20:10;;;;;;;;;;;;;;;;;;6183738;23;19919;-76
2022/09/03 16:22:36;;;;;;;;;;;;;;;;;;6183619;23;19987;-76
2022/09/03 16:25:01;;;;;;;;;;;;;;;;;;6183634;23;19971;-77
2022/09/03 16:27:44;;;;;;;;;;;;;;;;;;6183791;23;19919;-78
2022/09/03 16:33:02;;;;;;;;;;;;;;;;;;6132621;23;19966;-77
2022/09/03 16:35:36;;;;;;;;;;;;;;;;;;6110781;23;19924;-78
2022/09/03 16:38:02;;;;;;;;;;;;;;;;;;6109191;23;19912;-78
2022/09/03 16:40:28;;;;;;;;;;;;;;;;;;6127669;23;19919;-77
2022/09/03 16:42:54;;;;;;;;;;;;;;;;;;6110756;23;19998;-77
2022/09/03 16:45:19;;;;;;;;;;;;;;;;;;6158105;23;19912;-77
2022/09/03 16:47:45;;;;;;;;;;;;;;;;;;6183754;23;20379;-77
2022/09/03 16:50:11;;;;;;;;;;;;;;;;;;6108332;23;20404;-77
2022/09/03 16:52:36;;;;;;;;;;;;;;;;;;6107401;23;19924;-76
2022/09/03 16:55:03;;;;;;;;;;;;;;;;;;6108272;23;19912;-77
2022/09/03 16:57:28;;;;;;;;;;;;;;;;;;6183656;23;20342;-78
2022/09/03 16:59:54;;;;;;;;;;;;;;;;;;6183531;23;19916;-77
2022/09/03 17:02:20;;;;;;;;;;;;;;;;;;6108523;23;19916;-78
2022/09/03 17:04:46;;;;;;;;;;;;;;;;;;6108664;23;19916;-78
2022/09/03 17:07:12;;;;;;;;;;;;;;;;;;6156654;23;19924;-78
2022/09/03 17:09:38;;;;;;;;;;;;;;;;;;6182767;23;19935;-78
2022/09/03 17:12:04;;;;;;;;;;;;;;;;;;6182209;23;19931;-77
2022/09/03 17:14:29;;;;;;;;;;;;;;;;;;6182622;23;19920;-77
2022/09/03 17:17:04;;;;;;;;;;;;;;;;;;6182216;23;19945;-77
2022/09/03 17:19:30;;;;;;;;;;;;;;;;;;6132116;23;19912;-76
2022/09/03 17:21:57;;;;;;;;;;;;;;;;;;6181985;23;19916;-78
2022/09/03 17:24:23;;;;;;;;;;;;;;;;;;6182511;23;19939;-77
2022/09/03 17:26:50;;;;;;;;;;;;;;;;;;6182179;23;19912;-76
2022/09/03 17:29:17;;;;;;;;;;;;;;;;;;6156079;23;19917;-77
2022/09/03 17:31:50;;;;;;;;;;;;;;;;;;6182106;23;19927;-77
2022/09/03 17:34:16;;;;;;;;;;;;;;;;;;6182508;23;19943;-77
2022/09/03 17:36:44;;;;;;;;;;;;;;;;;;6182159;23;19912;-78
2022/09/03 17:39:10;;;;;;;;;;;;;;;;;;6181961;23;19920;-77
2022/09/03 17:41:36;;;;;;;;;;;;;;;;;;6181983;23;19912;-76
2022/09/03 17:44:03;;;;;;;;;;;;;;;;;;6182186;23;20361;-77
2022/09/03 17:46:28;;;;;;;;;;;;;;;;;;6182044;23;19912;-77
2022/09/03 17:48:54;;;;;;;;;;;;;;;;;;6181821;23;19959;-77
2022/09/03 17:51:20;;;;;;;;;;;;;;;;;;6182424;23;19912;-78
2022/09/03 17:53:45;;;;;;;;;;;;;;;;;;6156444;23;19912;-77
2022/09/03 17:56:20;;;;;;;;;;;;;;;;;;6181906;23;20020;-78
2022/09/03 17:58:46;;;;;;;;;;;;;;;;;;6169495;23;19966;-76
2022/09/03 18:04:22;;;;;;;;;;;;;;;;;;6156377;23;19913;-76
2022/09/03 18:06:48;;;;;;;;;;;;;;;;;;6181531;23;19947;-75
2022/09/03 18:09:13;;;;;;;;;;;;;;;;;;6182669;23;19919;-79
2022/09/03 18:11:39;;;;;;;;;;;;;;;;;;6176891;23;19923;-79
2022/09/03 18:14:04;;;;;;;;;;;;;;;;;;6178120;23;19913;-77
2022/09/03 18:16:30;;;;;;;;;;;;;;;;;;6178822;23;19913;-76
2022/09/03 18:18:55;;;;;;;;;;;;;;;;;;6178950;23;19988;-76
2022/09/03 20:10:49;;;;;;;;;;;;;;;;;;6189243;23;19998;-84
2022/09/03 20:13:15;;;;;;;;;;;;;;;;;;6161734;23;19920;-84
2022/09/03 20:15:40;;;;;;;;;;;;;;;;;;6198351;23;19916;-83
2022/09/03 20:18:06;;;;;;;;;;;;;;;;;;6199078;23;20260;-84
2022/09/03 20:20:31;;;;;;;;;;;;;;;;;;6189389;23;19995;-80
2022/09/03 20:22:57;;;;;;;;;;;;;;;;;;6185285;23;19967;-82
2022/09/03 20:25:25;;;;;;;;;;;;;;;;;;6181413;23;20396;-79
2022/09/03 20:27:51;;;;;;;;;;;;;;;;;;6180318;23;19912;-80
2022/09/03 20:30:17;;;;;;;;;;;;;;;;;;6154809;23;19916;-80
2022/09/03 20:32:43;;;;;;;;;;;;;;;;;;6181519;23;20374;-80
2022/09/03 20:35:09;;;;;;;;;;;;;;;;;;6153584;23;19912;-81
2022/09/03 20:37:37;;;;;;;;;;;;;;;;;;6157832;23;19912;-84
2022/09/03 20:40:05;;;;;;;;;;;;;;;;;;6175268;23;19919;-83
2022/09/03 20:42:30;;;;;;;;;;;;;;;;;;6182484;23;19911;-88
